Rafal Linetty

Olheiro-Chefe - Gornik Zabrze
3 Abr 2027
Sábado
Processo

Personalidade

Adaptabilidade (7) Ambição (16) Controvérsia (1) Lealdade (13) Pressão (9) Profissionalismo (18) Espírito Esportivo (5) Temperamento (14)

Perfil

Estilo de Treinamento Democrático
Licença Nacional B
Determinação 6
Gestão de Pessoas 6
Motivação 7
Disciplina 6
Satisfação no Trabalho
100%
Fadiga
0%
Função Olheiro-Chefe
Salário 27.4K p/s
Contrato 14.03.2028

Desempenho

Comportamento Bom
Eficácia do Treinamento
39%
Desenvolvimento do Jogador
35%
Prevenção de Lesões
40%
Implementação Tática
30%

Eventos Recentes

Participou de uma reunião de recrutamento agora
Recomendou um alvo de transferência agora
Participou de uma reunião de recrutamento agora
Participou de uma reunião de recrutamento agora
Participou de uma reunião de recrutamento agora
Participou de uma reunião de recrutamento agora
Participou de uma reunião de recrutamento agora
Avaliou um jogador agora

Monitorando agora

125
Jogador Clube Status Habilidade Confiança Observado Última observação Último voto
Haissem Hassan Bloemfontein Celtic Ativo 139 / 145 40% 5 01.04.2027 -
Louie Barry Sheffield Wednesday Ativo 129 / 127 40% 1 01.04.2027 -
Kwadwo Baah Watford Ativo 132 / 126 40% 2 31.03.2027 -
Ronald Swansea City Ativo 135 / 127 40% 3 31.03.2027 -
Mihailo Ivanović Millwall Ativo 124 / 130 40% 2 30.03.2027 -
Milan van Ewijk Coventry City Ativo 136 / 136 40% 1 30.03.2027 -
Patrik Wålemark Lech Ativo 123 / 135 40% 3 26.03.2027 Mais informações
Paris Maghoma Norwich City Ativo 121 / 126 40% 1 26.03.2027 -
Derensili Sanches Fernandes Huddersfield Town Ativo 125 / 127 40% 3 25.03.2027 -
Chiquinho Alverca Ativo 140 / 137 40% 2 25.03.2027 -
Kayne Ramsay Charlton Athletic Ativo 120 / 132 40% 1 24.03.2027 -
Mohamed-Ali Cho Hull City Ativo 129 / 132 40% 2 23.03.2027 -
Anis Mehmeti Ipswich Town Ativo 124 / 135 40% 1 23.03.2027 -
Harry Clarke Preston Ativo 136 / 131 40% 1 20.03.2027 -
Siyanda Ndlovu Hearts of Oak Ativo 110 / 117 40% 1 20.03.2027 -
Ali Soliman Masr El Makasa Ativo 136 / 123 40% 5 19.03.2027 Observar
Ali Ahmed Norwich City Ativo 118 / 128 40% 5 19.03.2027 -
Juan Bezerra Zamalek Ativo 110 / 126 40% 1 18.03.2027 Mais informações
Percy Erasmus SuperSport United Ativo 140 / 135 40% 14 17.03.2027 Observar
Ibrahim Tarek Masr El Makasa Ativo 130 / 138 40% 4 17.03.2027 Observar
Akinkunmi Amoo Ismaily Ativo 109 / 130 40% 2 16.03.2027 -
Marquinhos Spartak Moscow Ativo 123 / 120 40% 1 13.03.2027 -
Jack Diamond Stockport County Ativo 112 / 116 40% 2 12.03.2027 -
Sayfallah Ltaief Cracovia Ativo 126 / 121 40% 2 11.03.2027 -
Stanley Mills Oxford United Ativo 126 / 118 40% 1 07.03.2027 -
Richard Koné Queens Park Rangers Ativo 118 / 121 40% 1 05.03.2027 -
Leandro Andrade Polissia Ativo 132 / 126 40% 4 04.03.2027 -
Terry Devlin Portsmouth Ativo 115 / 129 40% 1 03.03.2027 -
Finn Azaz Southampton Ativo 127 / 130 40% 1 03.03.2027 -
Joe Gelhardt Hull City Ativo 133 / 125 40% 2 02.03.2027 -
Tomáš Rigo Stoke City Ativo 133 / 137 40% 1 28.02.2027 -
Bobby Clark Derby County Ativo 127 / 125 40% 3 27.02.2027 -
Alex Robertson Cardiff City Ativo 125 / 128 40% 3 27.02.2027 -
Cian Ashford Cardiff City Ativo 112 / 120 40% 2 24.02.2027 -
Relebohile Mofokeng Orlando Pirates Ativo 109 / 136 40% 2 24.02.2027 -
Keagan Hlatshwayo SuperSport United Ativo 119 / 124 40% 1 21.02.2027 -
Luis Palma Lech Ativo 117 / 111 40% 7 20.02.2027 -
Rumarn Burrell Queens Park Rangers Ativo 134 / 127 40% 2 20.02.2027 -
Marcelo Allende Mamelodi Sundowns Ativo 122 / 122 40% 1 18.02.2027 -
Sam Greenwood Bristol City Ativo 130 / 114 40% 1 17.02.2027 -
Petar Stanić Ludogorets Ativo 129 / 136 40% 2 15.02.2027 -
Itumeleng Tau Ajax Cape Town Ativo 115 / 105 40% 5 14.02.2027 -
Welington Southampton Ativo 135 / 125 40% 1 12.02.2027 -
Morgan Whittaker Middlesbrough Ativo 137 / 133 40% 1 10.02.2027 -
Rúben Vinagre Legia Ativo 119 / 115 40% 1 05.02.2027 -
Sergey Pinyaev Lokomotiv Moscow Ativo 128 / 122 40% 4 04.02.2027 -
Koki Saito Queens Park Rangers Ativo 117 / 125 40% 1 03.02.2027 -
Anders Klynge Jagiellonia Ativo 126 / 123 40% 1 01.02.2027 -
Ollie Scarles West Ham United Ativo 131 / 136 40% 1 25.01.2027 -
Dale Taylor Blackpool Ativo 116 / 113 40% 1 09.01.2027 -
Teboho Williams SuperSport United Ativo 121 / 121 66% 1 01.01.2027 Aprovar
Aljoša Matko Ujpest Perdido 117 / 117 66% 1 01.01.2027 -
Matej Trusa DAC Dunajska Streda Ativo 125 / 119 40% 1 30.12.2026 -
Marcel Reguła Zaglebie Ativo 100 / 105 40% 1 29.12.2026 -
Tyreece Campbell Charlton Athletic Ativo 109 / 125 40% 1 29.12.2026 -
Reda Khadra Qarabag Ativo 142 / 129 40% 3 28.12.2026 -
Gonzalo Plata Dinamo Moscow Ativo 132 / 135 40% 3 27.12.2026 -
Everton Bala Levski Ativo 125 / 129 40% 1 25.12.2026 -
Juan Manuel Boselli Krasnodar Ativo 123 / 126 40% 1 25.12.2026 -
Wandile Duba Bidvest Wits Ativo 114 / 119 40% 2 24.12.2026 -
Solly Khunyedi Bloemfontein Celtic Ativo 86 / 92 40% 1 24.12.2026 -
Isaac Price West Bromwich Albion Ativo 125 / 122 40% 1 24.12.2026 -
Evidence Makgopa Orlando Pirates Ativo 102 / 98 40% 2 21.12.2026 -
Piotr Samiec-Talar Slask Ativo 111 / 115 40% 2 19.12.2026 -
Aune Heggebø West Bromwich Albion Ativo 136 / 121 40% 1 19.12.2026 -
Pablo Rodríguez Lech Ativo 121 / 121 40% 4 16.12.2026 -
Jerome Karelse Golden Arrows Ativo 115 / 95 40% 1 15.12.2026 -
Dom Ballard Leyton Orient Ativo 117 / 130 40% 2 14.12.2026 -
Oswin Appollis Orlando Pirates Perdido 139 / 121 40% 1 14.12.2026 -
Jesus Ferreira Seattle Sounders Ativo 138 / 130 40% 3 11.12.2026 -
Tommy Conway Middlesbrough Ativo 120 / 126 40% 1 11.12.2026 -
Ronaldo Rostov Ativo 122 / 128 40% 1 05.12.2026 -
Danyil Alefirenko Chornomorets Ativo 103 / 96 40% 1 02.12.2026 -
José Barreto Fehervar Ativo 107 / 108 40% 1 01.12.2026 -
Brayan León Mamelodi Sundowns Ativo 123 / 105 40% 3 29.11.2026 -
Michele Šego Hajduk Split Ativo 113 / 129 40% 1 29.11.2026 -
Alasana Yirajang Slovan Bratislava Ativo 114 / 108 40% 1 28.11.2026 -
Yeangel Montero Naxxar Lions Ativo 113 / 109 40% 1 28.11.2026 -
Cheikh Sabaly Vancouver Whitecaps Ativo 139 / 127 40% 1 25.11.2026 -
Alexander Díaz Deportivo Riestra Ativo 124 / 123 40% 1 25.11.2026 -
Seedy Jatta Sturm Graz Ativo 122 / 124 40% 1 24.11.2026 -
Luca Langoni New England Revolution Ativo 133 / 142 40% 1 23.11.2026 -
Felipe Fernández Vorskla Ativo 95 / 101 40% 1 23.11.2026 -
Ammar Ramadan DAC Dunajska Streda Ativo 136 / 124 40% 1 22.11.2026 -
Dejan Joveljić Seattle Sounders Ativo 134 / 117 40% 1 22.11.2026 -
Bohdan Viunnyk Lechia Ativo 113 / 105 40% 2 21.11.2026 -
Franko Kovačević Ferencvaros Ativo 115 / 125 40% 2 21.11.2026 -
Etiosa Ighodaro Kaizer Chiefs Ativo 109 / 108 40% 2 19.11.2026 -
Louis Munteanu DC United Ativo 125 / 131 40% 2 18.11.2026 -
Daniel Karlsbakk Sarpsborg 08 Ativo 143 / 123 40% 1 18.11.2026 -
Rok Zajc NK Domzale Ativo 119 / 117 40% 2 17.11.2026 Mais informações
Assad Al Hamlawi Universitatea Craiova Ativo 129 / 119 40% 3 16.11.2026 -
Yegor Golenkov Rostov Ativo 127 / 125 40% 1 16.11.2026 -
Nicolás Fernández Mercau New York City Ativo 139 / 146 40% 1 15.11.2026 -
Camilo Durán Bloemfontein Celtic Ativo 103 / 115 40% 3 13.11.2026 -
Angelo Gattermayer Wolfsberger AC Perdido 129 / 125 40% 1 12.11.2026 Mais informações
José Paradela Cruz Azul Ativo 149 / 124 40% 1 12.11.2026 -
Michalis Kosidis Zaglebie Ativo 122 / 108 40% 1 10.11.2026 -
Tadeo Allende Inter Miami CF Ativo 123 / 120 40% 2 07.11.2026 -
Diego Valencia Gornik Leczna Ativo 105 / 106 40% 1 07.11.2026 -
Ole-Didrik Blomberg Bodo/Glimt Ativo 118 / 118 40% 1 07.11.2026 -
Rajmund Molnár Pogon Ativo 124 / 105 40% 2 05.11.2026 -
Nazar Voloshyn Dynamo Kyiv Ativo 133 / 136 40% 1 05.11.2026 -
Telasco Segovia Inter Miami CF Ativo 128 / 118 40% 2 04.11.2026 -
Gabriel Pirani San Diego Football Club Ativo 150 / 136 40% 2 04.11.2026 -
Jeong Sang-Bin St. Louis CITY SC Ativo 122 / 102 40% 1 30.10.2026 -
Patrik Wålemark Lech Perdido 129 / 121 40% 1 30.10.2026 Mais informações
Kelvin Yeboah Minnesota United FC Ativo 110 / 139 40% 2 29.10.2026 -
Thalente Mbatha Orlando Pirates Ativo 108 / 123 40% 1 27.10.2026 -
Conrad Wallem Valerenga Ativo 136 / 122 40% 1 27.10.2026 -
Carlos Paraco Metalist Ativo 107 / 103 40% 1 21.10.2026 -
Tomás Chancalay Minnesota United FC Ativo 121 / 117 40% 1 20.10.2026 -
Mihael Mlinarić Zaglebie Ativo 113 / 116 40% 1 16.10.2026 -
Sam Nombe Milton Keynes Dons Ativo 114 / 112 40% 1 14.10.2026 -
Ibrahim Aliyu Houston Dynamo Ativo 107 / 128 40% 2 13.10.2026 -
Ezekiel Kwame Alladoh Philadelphia Union Ativo 95 / 109 40% 1 13.10.2026 -
Ola Brynhildsen Bodo/Glimt Ativo 130 / 123 40% 1 09.10.2026 -
Germán Berterame Inter Miami CF Ativo 135 / 129 40% 1 09.10.2026 -
Theo Corbeanu Toronto FC Ativo 120 / 134 40% 1 06.10.2026 -
Jack Currie Oxford United Ativo 118 / 127 40% 1 10.09.2026 -
Patrick Yazbek Nashville SC Ativo 124 / 124 40% 1 10.09.2026 -
Dor Turgeman New England Revolution Ativo 120 / 125 40% 1 07.09.2026 -
Eric Ramírez Carabobo Ativo 100 / 101 40% 1 03.08.2026 -
Sebastián Ferreira Olimpia Ativo 132 / 125 40% 1 01.08.2026 -
Andrey Estupiñán Millonarios Ativo 120 / 115 40% 1 01.08.2026 -